createdAt,value
2022-09-28T00:01:58.932Z,93442.94
2022-09-28T00:04:25.522Z,93443.50
2022-09-28T00:06:52.099Z,93433.06
2022-09-28T00:09:18.623Z,93442.63
2022-09-28T00:11:46.019Z,93426.50
2022-09-28T00:14:13.235Z,93427.28
2022-09-28T00:16:43.426Z,93410.06
2022-09-28T00:19:11.347Z,93404.22
2022-09-28T00:21:39.838Z,93406.06
2022-09-28T00:24:15.602Z,93407.66
2022-09-28T00:26:48.309Z,93394.84
2022-09-28T00:29:27.001Z,93394.34
2022-09-28T00:31:59.937Z,93390.63
2022-09-28T00:34:27.364Z,93379.94
2022-09-28T00:36:53.832Z,93368.19
2022-09-28T00:39:20.328Z,93376.09
2022-09-28T00:41:47.353Z,93373.19
2022-09-28T00:44:22.634Z,93365.50
2022-09-28T00:46:52.873Z,93369.22
2022-09-28T00:49:37.050Z,93377.19
2022-09-28T00:52:07.278Z,93366.84
2022-09-28T00:54:34.924Z,93361.31
2022-09-28T00:57:04.007Z,93355.19
2022-09-28T00:59:32.940Z,93350.69
2022-09-28T01:01:59.574Z,93354.13
2022-09-28T01:04:29.820Z,93347.47
2022-09-28T01:06:58.043Z,93345.63
2022-09-28T01:09:27.321Z,93344.34
2022-09-28T01:11:55.120Z,93340.09
2022-09-28T01:14:25.581Z,93350.44
2022-09-28T01:17:08.365Z,93341.66
2022-09-28T01:19:44.021Z,93336.31
2022-09-28T01:22:35.387Z,93341.63
2022-09-28T01:25:12.144Z,93329.44
2022-09-28T01:27:47.695Z,93325.78
2022-09-28T01:30:18.123Z,93308.00
2022-09-28T01:32:55.165Z,93298.72
2022-09-28T01:35:32.162Z,93294.25
2022-09-28T01:38:11.952Z,93298.75
2022-09-28T01:40:40.360Z,93302.25
2022-09-28T01:43:11.389Z,93288.44
2022-09-28T01:45:48.432Z,93270.09
2022-09-28T01:48:22.840Z,93247.06
2022-09-28T01:50:53.562Z,93235.72
2022-09-28T01:53:28.877Z,93232.00
2022-09-28T01:56:00.839Z,93226.06
2022-09-28T01:58:55.536Z,93219.25
2022-09-28T02:01:29.256Z,93210.78
2022-09-28T02:04:28.633Z,93196.97
2022-09-28T02:07:06.317Z,93195.72
2022-09-28T02:09:39.061Z,93184.31
2022-09-28T02:12:12.641Z,93188.25
2022-09-28T02:14:41.372Z,93177.44
2022-09-28T02:17:09.733Z,93174.16
2022-09-28T02:19:36.531Z,93172.53
2022-09-28T02:22:08.807Z,93163.53
2022-09-28T02:24:57.764Z,93153.44
2022-09-28T02:27:36.396Z,93146.47
2022-09-28T02:30:05.113Z,93131.63
2022-09-28T02:32:33.147Z,93118.66
2022-09-28T02:34:59.636Z,93112.28
2022-09-28T02:37:27.379Z,93112.84
2022-09-28T02:39:53.861Z,93114.06
2022-09-28T02:42:26.841Z,93105.03
2022-09-28T02:45:28.607Z,93104.94
2022-09-28T02:48:11.762Z,93092.88
2022-09-28T02:51:03.070Z,93089.31
2022-09-28T02:53:45.371Z,93084.28
2022-09-28T02:56:44.848Z,93082.88
2022-09-28T02:59:39.801Z,93090.09
2022-09-28T03:02:30.254Z,93092.75
2022-09-28T03:05:07.780Z,93089.59
2022-09-28T03:07:40.548Z,93080.06
2022-09-28T03:10:16.660Z,93077.63
2022-09-28T03:12:46.205Z,93066.19
2022-09-28T03:15:20.213Z,93053.34
2022-09-28T03:17:46.740Z,93047.25
2022-09-28T03:20:13.905Z,93056.72
2022-09-28T03:22:40.321Z,93042.72
2022-09-28T03:25:07.895Z,93043.31
2022-09-28T03:27:34.555Z,93038.50
2022-09-28T03:30:00.935Z,93038.22
2022-09-28T03:32:27.568Z,93029.13
2022-09-28T03:34:54.342Z,93037.53
2022-09-28T03:37:20.749Z,93033.50
2022-09-28T03:39:47.233Z,93032.69
2022-09-28T03:42:13.654Z,93030.84
2022-09-28T03:44:40.044Z,93029.69
2022-09-28T03:47:08.781Z,93035.03
2022-09-28T03:49:35.428Z,93032.16
2022-09-28T03:52:02.635Z,93037.38
2022-09-28T03:54:29.184Z,93039.63
2022-09-28T03:56:55.885Z,93045.50
2022-09-28T03:59:22.248Z,93046.53
2022-09-28T04:01:49.927Z,93047.13
2022-09-28T04:04:16.425Z,93037.66
2022-09-28T04:06:42.888Z,93044.50
2022-09-28T04:09:09.284Z,93055.59
2022-09-28T04:11:53.170Z,93047.91
2022-09-28T04:14:22.161Z,93042.09
2022-09-28T04:16:48.697Z,93048.31
2022-09-28T04:19:15.566Z,93055.09
2022-09-28T04:21:42.003Z,93061.38
2022-09-28T04:24:10.227Z,93053.22
2022-09-28T04:26:36.812Z,93060.09
2022-09-28T04:29:18.862Z,93061.16
2022-09-28T04:31:52.757Z,93076.25
2022-09-28T04:34:21.654Z,93078.94
2022-09-28T04:36:48.785Z,93057.38
2022-09-28T04:39:18.037Z,93069.78
2022-09-28T04:41:47.188Z,93075.25
2022-09-28T04:44:13.604Z,93075.53
2022-09-28T04:46:40.047Z,93070.00
2022-09-28T04:49:06.386Z,93075.56
2022-09-28T04:51:32.812Z,93066.34
2022-09-28T04:53:59.425Z,93057.72
2022-09-28T04:56:25.900Z,93072.00
2022-09-28T04:58:52.964Z,93069.84
2022-09-28T05:01:23.421Z,93061.91
2022-09-28T05:03:51.000Z,93067.94
2022-09-28T05:06:17.916Z,93064.22
2022-09-28T05:08:46.860Z,93062.34
2022-09-28T05:11:14.840Z,93069.56
2022-09-28T05:13:45.421Z,93071.44
2022-09-28T05:16:13.724Z,93070.16
2022-09-28T05:18:40.180Z,93071.66
2022-09-28T05:21:12.711Z,93059.00
2022-09-28T05:23:40.094Z,93058.78
2022-09-28T05:26:07.144Z,93050.44
2022-09-28T05:28:33.869Z,93060.88
2022-09-28T05:31:01.557Z,93056.13
2022-09-28T05:33:28.684Z,93052.50
2022-09-28T05:35:59.019Z,93044.53
2022-09-28T05:38:28.351Z,93042.34
2022-09-28T05:40:54.855Z,93041.78
2022-09-28T05:43:21.410Z,93036.53
2022-09-28T05:45:52.837Z,93027.69
2022-09-28T05:48:21.626Z,93031.75
2022-09-28T05:50:52.364Z,93028.53
2022-09-28T05:53:19.116Z,93026.09
2022-09-28T05:55:45.640Z,93026.78
2022-09-28T05:58:12.031Z,93021.94
2022-09-28T06:00:38.513Z,93008.25
2022-09-28T06:03:12.071Z,93014.84
2022-09-28T06:05:39.678Z,93006.84
2022-09-28T06:08:08.273Z,93002.88
2022-09-28T06:10:35.018Z,92997.59
2022-09-28T06:13:02.112Z,93006.84
2022-09-28T06:15:31.346Z,93010.44
2022-09-28T06:18:07.114Z,93016.47
2022-09-28T06:20:36.114Z,93008.78
2022-09-28T06:23:02.931Z,93016.84
2022-09-28T06:25:29.774Z,93018.06
2022-09-28T06:28:00.260Z,93018.56
2022-09-28T06:30:28.393Z,93025.94
2022-09-28T06:32:56.924Z,93022.00
2022-09-28T06:35:25.444Z,93019.56
2022-09-28T06:37:53.100Z,93016.66
2022-09-28T06:40:21.197Z,93020.66
2022-09-28T06:43:00.886Z,93018.22
2022-09-28T06:45:28.105Z,93022.84
2022-09-28T06:47:57.394Z,93028.56
2022-09-28T06:50:28.311Z,93035.84
2022-09-28T06:52:55.296Z,93032.44
2022-09-28T06:55:22.155Z,93039.63
2022-09-28T06:57:58.069Z,93023.72
2022-09-28T07:00:24.755Z,93028.75
2022-09-28T07:02:51.207Z,93016.75
2022-09-28T07:05:19.163Z,93035.16
2022-09-28T07:07:46.075Z,93035.25
2022-09-28T07:10:13.018Z,93039.66
2022-09-28T07:12:40.570Z,93051.19
2022-09-28T07:15:08.232Z,93050.91
2022-09-28T07:17:40.535Z,93049.88
2022-09-28T07:20:18.488Z,93053.78
2022-09-28T07:22:47.885Z,93060.63
2022-09-28T07:25:14.420Z,93049.47
2022-09-28T07:27:40.799Z,93060.81
2022-09-28T07:30:07.693Z,93064.53
2022-09-28T07:32:37.169Z,93069.25
2022-09-28T07:35:07.953Z,93072.13
2022-09-28T07:37:37.457Z,93078.69
2022-09-28T07:40:27.341Z,93081.34
2022-09-28T07:42:53.974Z,93089.31
2022-09-28T07:45:24.478Z,93084.53
2022-09-28T07:47:55.826Z,93091.69
2022-09-28T07:50:22.569Z,93093.56
2022-09-28T07:52:49.322Z,93102.25
2022-09-28T07:55:15.859Z,93112.84
2022-09-28T07:57:42.245Z,93103.59
2022-09-28T08:00:09.279Z,93100.16
2022-09-28T08:02:37.470Z,93101.81
2022-09-28T08:05:04.189Z,93103.38
2022-09-28T08:07:32.425Z,93109.97
2022-09-28T08:09:58.774Z,93103.81
2022-09-28T08:12:25.257Z,93105.63
2022-09-28T08:14:52.677Z,93110.72
2022-09-28T08:17:19.137Z,93103.91
2022-09-28T08:20:04.255Z,93104.44
2022-09-28T08:22:32.259Z,93102.00
2022-09-28T08:24:58.792Z,93116.69
2022-09-28T08:27:25.287Z,93116.31
2022-09-28T08:29:51.697Z,93119.56
2022-09-28T08:32:19.521Z,93128.25
2022-09-28T08:34:46.023Z,93136.72
2022-09-28T08:37:12.553Z,93145.41
2022-09-28T08:39:39.238Z,93149.41
2022-09-28T08:42:27.537Z,93140.25
2022-09-28T08:44:58.531Z,93144.94
2022-09-28T08:47:50.308Z,93145.72
2022-09-28T08:50:21.745Z,93154.69
2022-09-28T08:52:53.743Z,93151.28
2022-09-28T08:55:23.187Z,93159.72
2022-09-28T08:58:01.096Z,93159.88
2022-09-28T09:00:42.023Z,93153.59
2022-09-28T09:03:37.700Z,93148.50
2022-09-28T09:06:26.120Z,93152.38
2022-09-28T09:09:22.683Z,93146.94
2022-09-28T09:12:00.997Z,93143.72
2022-09-28T09:14:48.973Z,93136.38
2022-09-28T09:17:47.440Z,93126.22
2022-09-28T09:20:41.226Z,93122.19
2022-09-28T09:23:29.501Z,93120.88
2022-09-28T09:26:03.709Z,93123.94
2022-09-28T09:28:51.604Z,93123.19
2022-09-28T09:31:33.171Z,93128.22
2022-09-28T09:34:15.343Z,93120.56
2022-09-28T09:36:56.963Z,93113.72
2022-09-28T09:39:53.969Z,93110.75
2022-09-28T09:42:56.766Z,93114.38
2022-09-28T09:45:31.285Z,93108.72
2022-09-28T09:48:04.529Z,93118.59
2022-09-28T09:50:39.882Z,93116.47
2022-09-28T09:53:36.121Z,93111.06
2022-09-28T09:56:14.892Z,93121.63
2022-09-28T09:58:50.416Z,93123.72
2022-09-28T10:01:22.766Z,93120.00
2022-09-28T10:03:50.867Z,93122.94
2022-09-28T10:06:33.366Z,93121.56
2022-09-28T10:09:13.610Z,93130.81
2022-09-28T10:11:43.531Z,93137.19
2022-09-28T10:14:19.980Z,93141.19
2022-09-28T10:16:48.394Z,93150.16
2022-09-28T10:19:19.121Z,93149.38
2022-09-28T10:21:50.368Z,93149.38
2022-09-28T10:24:27.882Z,93154.38
2022-09-28T10:26:56.211Z,93162.34
2022-09-28T10:29:26.178Z,93158.63
2022-09-28T10:31:54.305Z,93152.25
2022-09-28T10:34:29.316Z,93158.34
2022-09-28T10:37:00.510Z,93160.72
2022-09-28T10:39:34.321Z,93156.72
2022-09-28T10:42:04.274Z,93163.06
2022-09-28T10:44:34.599Z,93164.38
2022-09-28T10:47:07.988Z,93166.25
2022-09-28T10:49:46.748Z,93148.34
2022-09-28T10:52:37.077Z,93149.94
2022-09-28T10:55:32.569Z,93157.81
2022-09-28T10:58:00.266Z,93167.06
2022-09-28T11:00:29.744Z,93173.34
2022-09-28T11:02:56.971Z,93171.03
2022-09-28T11:05:28.997Z,93168.97
2022-09-28T11:07:57.752Z,93176.25
2022-09-28T11:10:30.297Z,93173.81
2022-09-28T11:12:57.744Z,93161.25
2022-09-28T11:15:30.101Z,93162.59
2022-09-28T11:17:56.528Z,93167.41
2022-09-28T11:20:28.190Z,93172.28
2022-09-28T11:23:00.441Z,93165.19
2022-09-28T11:25:31.326Z,93171.88
2022-09-28T11:28:01.559Z,93169.84
2022-09-28T11:30:33.753Z,93167.47
2022-09-28T11:33:10.600Z,93181.06
2022-09-28T11:36:01.214Z,93178.53
2022-09-28T11:38:39.453Z,93169.69
2022-09-28T11:41:37.624Z,93172.84
2022-09-28T11:44:22.403Z,93179.97
2022-09-28T11:47:07.479Z,93179.69
2022-09-28T11:49:41.517Z,93174.88
2022-09-28T11:52:21.152Z,93177.53
2022-09-28T11:54:53.654Z,93177.81
2022-09-28T11:57:31.539Z,93172.88
2022-09-28T12:00:02.382Z,93167.63
2022-09-28T12:02:39.555Z,93174.50
2022-09-28T12:05:39.005Z,93177.34
2022-09-28T12:08:15.145Z,93176.03
2022-09-28T12:10:55.396Z,93173.41
2022-09-28T12:13:33.223Z,93175.72
2022-09-28T12:21:37.383Z,93182.59
2022-09-28T12:24:11.814Z,93182.38
2022-09-28T12:27:10.257Z,93180.84
2022-09-28T12:29:43.417Z,93188.97
2022-09-28T12:32:19.543Z,93186.22
2022-09-28T12:34:46.000Z,93189.22
2022-09-28T12:37:35.371Z,93191.28
2022-09-28T12:40:32.764Z,93192.06
2022-09-28T12:43:17.531Z,93197.94
2022-09-28T12:46:12.682Z,93195.69
2022-09-28T12:51:59.877Z,93191.50
2022-09-28T12:54:56.908Z,93193.66
2022-09-28T12:57:54.613Z,93198.91
2022-09-28T13:00:23.541Z,93186.50
2022-09-28T13:03:06.668Z,93196.03
2022-09-28T13:05:56.572Z,93196.53
2022-09-28T13:08:58.444Z,93186.28
2022-09-28T13:11:47.465Z,93179.94
2022-09-28T13:14:55.006Z,93181.69
2022-09-28T13:17:27.536Z,93176.38
2022-09-28T13:20:17.489Z,93171.63
2022-09-28T13:22:50.128Z,93176.72
2022-09-28T13:25:20.691Z,93178.53
2022-09-28T13:27:55.481Z,93172.28
2022-09-28T13:30:22.415Z,93173.31
2022-09-28T13:32:50.264Z,93182.19
2022-09-28T13:35:21.409Z,93182.13
2022-09-28T13:38:08.428Z,93180.59
2022-09-28T13:41:06.068Z,93188.38
2022-09-28T13:43:49.918Z,93186.78
2022-09-28T13:46:58.740Z,93195.75
2022-09-28T13:50:06.063Z,93196.00
2022-09-28T13:52:32.459Z,93198.69
2022-09-28T13:55:33.134Z,93191.91
2022-09-28T13:58:14.545Z,93195.50
2022-09-28T14:00:51.319Z,93188.28
2022-09-28T14:03:44.212Z,93196.34
2022-09-28T14:06:33.329Z,93186.56
2022-09-28T14:09:24.442Z,93187.16
2022-09-28T14:11:58.094Z,93181.59
2022-09-28T14:14:45.623Z,93184.91
2022-09-28T14:17:20.946Z,93180.69
2022-09-28T14:19:52.920Z,93190.44
2022-09-28T14:22:48.113Z,93174.53
2022-09-28T14:25:24.942Z,93178.75
2022-09-28T14:28:42.764Z,93189.31
2022-09-28T14:31:17.271Z,93184.81
2022-09-28T14:33:54.740Z,93183.72
2022-09-28T14:36:54.247Z,93195.22
2022-09-28T14:39:49.796Z,93190.84
2022-09-28T14:42:22.634Z,93199.22
2022-09-28T14:45:06.813Z,93197.88
2022-09-28T14:47:40.352Z,93194.09
2022-09-28T14:50:25.158Z,93215.53
2022-09-28T14:52:54.591Z,93214.19
2022-09-28T14:55:44.057Z,93208.75
2022-09-28T14:58:17.923Z,93215.59
2022-09-28T15:00:46.555Z,93218.47
2022-09-28T15:03:14.537Z,93216.59
2022-09-28T15:05:49.578Z,93226.66
2022-09-28T15:08:20.929Z,93225.59
2022-09-28T15:10:50.216Z,93227.16
2022-09-28T15:13:25.467Z,93224.28
2022-09-28T15:15:55.540Z,93231.69
2022-09-28T15:18:46.049Z,93233.25
2022-09-28T15:21:13.599Z,93229.53
2022-09-28T15:23:44.052Z,93234.06
2022-09-28T15:26:28.429Z,93248.09
2022-09-28T15:28:55.423Z,93245.16
2022-09-28T15:31:25.579Z,93244.41
2022-09-28T15:34:11.681Z,93240.63
2022-09-28T15:36:41.185Z,93237.53
2022-09-28T15:39:18.490Z,93237.50
2022-09-28T15:41:47.543Z,93223.06
2022-09-28T15:44:32.981Z,93230.47
2022-09-28T15:47:27.251Z,93242.00
2022-09-28T15:50:03.121Z,93252.56
2022-09-28T15:52:42.823Z,93253.06
2022-09-28T15:55:18.192Z,93258.50
2022-09-28T15:57:44.661Z,93251.81
2022-09-28T16:00:30.591Z,93249.25
2022-09-28T16:03:07.337Z,93255.53
2022-09-28T16:05:41.381Z,93257.63
2022-09-28T16:08:24.621Z,93259.50
2022-09-28T16:10:57.749Z,93252.03
2022-09-28T16:13:24.711Z,93262.38
2022-09-28T16:15:59.802Z,93269.53
2022-09-28T16:18:30.973Z,93269.13
2022-09-28T16:21:20.839Z,93260.66
2022-09-28T16:23:53.038Z,93260.13
2022-09-28T16:26:32.158Z,93266.31
2022-09-28T16:28:58.917Z,93263.09
2022-09-28T16:31:33.627Z,93261.72
2022-09-28T16:34:19.766Z,93265.13
2022-09-28T16:36:48.859Z,93263.53
2022-09-28T16:39:16.933Z,93264.00
2022-09-28T16:41:49.923Z,93269.03
2022-09-28T16:44:29.234Z,93269.84
2022-09-28T16:46:58.431Z,93265.84
2022-09-28T16:49:26.747Z,93269.84
2022-09-28T16:51:53.375Z,93269.31
2022-09-28T16:54:43.299Z,93263.22
2022-09-28T16:57:12.495Z,93270.88
2022-09-28T16:59:38.962Z,93268.50
2022-09-28T17:02:46.269Z,93270.09
2022-09-28T17:05:07.917Z,93270.88
2022-09-28T17:07:34.612Z,93271.41
2022-09-28T17:10:01.051Z,93270.88
2022-09-28T17:12:28.867Z,93274.84
2022-09-28T17:14:55.419Z,93263.16
2022-09-28T17:17:22.688Z,93256.84
2022-09-28T17:19:49.156Z,93261.06
2022-09-28T17:22:16.718Z,93256.84
2022-09-28T17:24:45.498Z,93255.78
2022-09-28T17:27:16.900Z,93260.56
2022-09-28T17:29:43.327Z,93265.59
2022-09-28T17:32:18.606Z,93257.34
2022-09-28T17:34:51.615Z,93250.75
2022-09-28T17:37:22.550Z,93253.41
2022-09-28T17:39:48.979Z,93251.03
2022-09-28T17:42:17.160Z,93239.91
2022-09-28T17:44:43.580Z,93247.88
2022-09-28T17:47:10.693Z,93245.72
2022-09-28T17:49:38.773Z,93255.53
2022-09-28T17:52:05.534Z,93260.84
2022-09-28T17:54:33.733Z,93258.19
2022-09-28T17:57:00.255Z,93253.94
2022-09-28T17:59:28.005Z,93252.09
2022-09-28T18:01:54.503Z,93255.03
2022-09-28T18:04:47.123Z,93257.69
2022-09-28T18:07:07.602Z,93252.09
2022-09-28T18:09:34.046Z,93246.28
2022-09-28T18:12:04.116Z,93260.03
2022-09-28T18:14:30.656Z,93257.63
2022-09-28T18:16:57.147Z,93257.69
2022-09-28T18:19:23.630Z,93274.09
2022-09-28T18:21:50.005Z,93273.53
2022-09-28T18:24:16.600Z,93278.03
2022-09-28T18:26:42.995Z,93286.28
2022-09-28T18:29:10.347Z,93291.84
2022-09-28T18:31:36.849Z,93292.19
2022-09-28T18:34:03.381Z,93298.47
2022-09-28T18:36:31.096Z,93310.94
2022-09-28T18:38:57.534Z,93305.63
2022-09-28T18:41:24.532Z,93306.69
2022-09-28T18:43:51.035Z,93314.66
2022-09-28T18:46:18.300Z,93317.84
2022-09-28T18:48:45.081Z,93330.84
2022-09-28T18:51:12.417Z,93333.25
2022-09-28T18:53:39.820Z,93340.88
2022-09-28T18:56:08.264Z,93344.38
2022-09-28T18:58:40.998Z,93346.09
2022-09-28T19:01:28.954Z,93348.91
2022-09-28T19:03:56.350Z,93353.63
2022-09-28T19:06:22.840Z,93358.69
2022-09-28T19:08:55.630Z,93372.47
2022-09-28T19:11:23.018Z,93362.41
2022-09-28T19:13:49.445Z,93366.63
2022-09-28T19:16:18.748Z,93382.03
2022-09-28T19:18:45.275Z,93373.13
2022-09-28T19:21:14.063Z,93388.91
2022-09-28T19:23:44.797Z,93383.72
2022-09-28T19:26:21.334Z,93393.00
2022-09-28T19:28:48.757Z,93385.25
2022-09-28T19:31:15.543Z,93394.78
2022-09-28T19:33:42.147Z,93396.09
2022-09-28T19:36:11.484Z,93402.44
2022-09-28T19:38:39.334Z,93400.09
2022-09-28T19:41:45.863Z,93404.06
2022-09-28T19:44:27.237Z,93408.59
2022-09-28T19:46:59.345Z,93414.50
2022-09-28T19:49:27.321Z,93423.16
2022-09-28T19:52:14.287Z,93422.09
2022-09-28T19:54:44.430Z,93424.75
2022-09-28T19:57:11.515Z,93424.72
2022-09-28T19:59:38.513Z,93427.28
2022-09-28T20:02:06.156Z,93425.81
2022-09-28T20:04:32.732Z,93436.41
2022-09-28T20:06:59.302Z,93428.72
2022-09-28T20:09:25.722Z,93431.91
2022-09-28T20:11:53.069Z,93434.47
2022-09-28T20:14:19.567Z,93440.41
2022-09-28T20:16:48.713Z,93445.66
2022-09-28T20:19:15.838Z,93449.38
2022-09-28T20:21:42.325Z,93445.94
2022-09-28T20:24:11.594Z,93444.59
2022-09-28T20:26:38.031Z,93450.19
2022-09-28T20:29:06.649Z,93443.56
2022-09-28T20:31:36.157Z,93456.03
2022-09-28T20:34:04.194Z,93448.59
2022-09-28T20:36:31.943Z,93464.22
2022-09-28T20:39:02.400Z,93462.38
2022-09-28T20:41:34.711Z,93460.78
2022-09-28T20:44:05.077Z,93460.25
2022-09-28T20:46:32.896Z,93457.94
2022-09-28T20:48:59.674Z,93450.47
2022-09-28T20:51:26.197Z,93457.09
2022-09-28T20:53:54.860Z,93462.63
2022-09-28T20:56:23.877Z,93466.09
2022-09-28T20:58:51.307Z,93461.84
2022-09-28T21:01:25.990Z,93461.06
2022-09-28T21:03:53.847Z,93460.50
2022-09-28T21:06:21.963Z,93458.13
2022-09-28T21:08:49.574Z,93453.63
2022-09-28T21:11:21.360Z,93455.75
2022-09-28T21:13:51.516Z,93457.88
2022-09-28T21:16:18.090Z,93454.69
2022-09-28T21:18:45.076Z,93452.84
2022-09-28T21:21:14.104Z,93451.78
2022-09-28T21:23:40.956Z,93453.88
2022-09-28T21:26:09.832Z,93454.69
2022-09-28T21:28:36.972Z,93455.50
2022-09-28T21:31:06.253Z,93459.19
2022-09-28T21:33:33.104Z,93456.81
2022-09-28T21:36:04.924Z,93462.63
2022-09-28T21:38:31.771Z,93458.16
2022-09-28T21:40:59.653Z,93463.69
2022-09-28T21:43:28.048Z,93453.09
2022-09-28T21:45:55.971Z,93451.50
2022-09-28T21:48:23.716Z,93456.03
2022-09-28T21:50:57.085Z,93449.38
2022-09-28T21:53:25.311Z,93449.94
2022-09-28T21:55:53.129Z,93449.94
2022-09-28T21:58:24.055Z,93447.78
2022-09-28T22:00:56.923Z,93451.50
2022-09-28T22:03:25.736Z,93445.41
2022-09-28T22:05:52.434Z,93451.00
2022-09-28T22:08:19.976Z,93452.31
2022-09-28T22:10:57.536Z,93460.53
2022-09-28T22:13:23.969Z,93449.13
2022-09-28T22:15:54.347Z,93455.50
2022-09-28T22:18:20.833Z,93453.13
2022-09-28T22:20:47.331Z,93449.91
2022-09-28T22:23:13.745Z,93442.19
2022-09-28T22:25:40.130Z,93439.41
2022-09-28T22:28:06.544Z,93435.94
2022-09-28T22:30:34.823Z,93438.31
2022-09-28T22:33:02.403Z,93439.09
2022-09-28T22:35:28.826Z,93446.25
2022-09-28T22:37:55.261Z,93439.34
2022-09-28T22:40:21.737Z,93432.47
2022-09-28T22:42:48.223Z,93434.59
2022-09-28T22:45:14.648Z,93428.25
2022-09-28T22:47:41.060Z,93429.56
2022-09-28T22:50:08.123Z,93429.56
2022-09-28T22:52:34.525Z,93433.28
2022-09-28T22:55:00.978Z,93428.50
2022-09-28T22:57:27.382Z,93430.81
2022-09-28T22:59:53.770Z,93422.97
2022-09-28T23:02:20.180Z,93421.63
2022-09-28T23:04:46.548Z,93423.75
2022-09-28T23:07:12.964Z,93420.06
2022-09-28T23:09:39.323Z,93416.84
2022-09-28T23:12:05.894Z,93408.56
2022-09-28T23:14:32.261Z,93420.63
2022-09-28T23:16:58.808Z,93416.81
2022-09-28T23:19:25.192Z,93403.41
2022-09-28T23:21:51.589Z,93395.16
2022-09-28T23:24:18.912Z,93391.47
2022-09-28T23:26:45.534Z,93391.19
2022-09-28T23:29:11.972Z,93390.66
2022-09-28T23:31:39.117Z,93396.22
2022-09-28T23:34:06.771Z,93395.41
2022-09-28T23:36:34.143Z,93393.28
2022-09-28T23:39:00.711Z,93389.06
2022-09-28T23:41:27.646Z,93386.69
2022-09-28T23:43:54.035Z,93390.41
2022-09-28T23:46:21.321Z,93395.97
2022-09-28T23:48:48.692Z,93389.84
2022-09-28T23:51:15.148Z,93389.59
2022-09-28T23:53:41.566Z,93390.41
2022-09-28T23:56:08.040Z,93387.78
2022-09-28T23:58:34.562Z,93391.19
